Time,TemperatureF,DewpointF,PressureIn,WindDirection,WindDirectionDegrees,WindSpeedMPH,WindSpeedGustMPH,Humidity,HourlyPrecipIn,Conditions,Clouds,dailyrainin,SoftwareType,DateUTC
2013-07-08 00:01:00,82.0,49.3,28.94,ESE,102,0.0,0.0,32,0.00,,---,0.00,VWS V14.01,2013-07-08 05:01:00,
2013-07-08 00:07:00,82.0,49.3,28.94,South,185,0.0,0.0,32,0.00,,---,0.00,VWS V14.01,2013-07-08 05:07:00,
2013-07-08 00:13:00,82.0,49.3,28.94,NW,320,0.0,0.0,32,0.00,,---,0.00,VWS V14.01,2013-07-08 05:13:00,
2013-07-08 00:18:00,82.0,49.3,28.94,SSE,152,0.0,0.0,32,0.00,,---,0.00,VWS V14.01,2013-07-08 05:18:00,
2013-07-08 00:24:00,81.9,49.1,28.94,West,273,0.0,0.0,32,0.00,,---,0.00,VWS V14.01,2013-07-08 05:24:00,
2013-07-08 00:30:00,82.2,49.5,28.94,West,275,0.0,0.0,32,0.00,,---,0.00,VWS V14.01,2013-07-08 05:30:00,
2013-07-08 00:35:00,82.2,49.5,28.94,ESE,116,0.0,0.0,32,0.00,,---,0.00,VWS V14.01,2013-07-08 05:35:00,
2013-07-08 00:41:00,82.0,49.3,28.94,SSW,208,0.0,0.0,32,0.00,,---,0.00,VWS V14.01,2013-07-08 05:41:00,
2013-07-08 00:46:00,82.0,49.3,28.94,SSW,197,0.0,0.0,32,0.00,,---,0.00,VWS V14.01,2013-07-08 05:46:00,
2013-07-08 00:51:00,82.0,49.3,28.94,SSW,202,0.0,0.0,32,0.00,,---,0.00,VWS V14.01,2013-07-08 05:51:00,
2013-07-08 00:57:00,81.9,49.1,28.94,West,263,0.0,0.0,32,0.00,,---,0.00,VWS V14.01,2013-07-08 05:57:00,
2013-07-08 01:02:00,81.7,49.0,28.94,SSW,194,0.0,0.0,32,0.00,,---,0.00,VWS V14.01,2013-07-08 06:02:00,
2013-07-08 01:08:00,81.7,49.0,28.94,WSW,257,0.0,0.0,32,0.00,,---,0.00,VWS V14.01,2013-07-08 06:08:00,
2013-07-08 01:14:00,81.7,49.0,28.94,WSW,243,0.0,0.0,32,0.00,,---,0.00,VWS V14.01,2013-07-08 06:14:00,
2013-07-08 01:19:00,81.7,49.0,28.94,WSW,256,0.0,0.0,32,0.00,,---,0.00,VWS V14.01,2013-07-08 06:19:00,
2013-07-08 01:24:00,81.5,48.8,28.94,WSW,254,0.0,0.0,32,0.00,,---,0.00,VWS V14.01,2013-07-08 06:24:00,
2013-07-08 01:29:00,81.3,49.5,28.94,West,261,0.0,0.0,33,0.00,,---,0.00,VWS V14.01,2013-07-08 06:29:00,
2013-07-08 01:34:00,81.3,49.5,28.94,NNW,345,0.0,0.0,33,0.00,,---,0.00,VWS V14.01,2013-07-08 06:34:00,
2013-07-08 01:39:00,81.3,49.5,28.94,SW,227,0.0,0.0,33,0.00,,---,0.00,VWS V14.01,2013-07-08 06:39:00,
2013-07-08 01:44:00,81.1,49.3,28.94,SSW,210,0.0,0.0,33,0.00,,---,0.00,VWS V14.01,2013-07-08 06:44:00,
2013-07-08 01:49:00,81.1,49.3,28.94,SW,217,0.0,0.0,33,0.00,,---,0.00,VWS V14.01,2013-07-08 06:49:00,
2013-07-08 01:55:00,81.0,49.2,28.94,SSW,208,0.0,0.0,33,0.00,,---,0.00,VWS V14.01,2013-07-08 06:55:00,
2013-07-08 02:00:00,80.6,53.4,28.94,SSW,199,0.0,0.0,39,0.00,,---,0.00,VWS V14.01,2013-07-08 07:00:00,
2013-07-08 02:06:00,79.9,54.1,28.97,SSW,203,0.0,0.0,41,0.00,,---,0.00,VWS V14.01,2013-07-08 07:06:00,
2013-07-08 02:11:00,79.0,55.2,28.97,WNW,283,0.0,0.0,44,0.00,,---,0.00,VWS V14.01,2013-07-08 07:11:00,
2013-07-08 02:17:00,78.1,55.0,28.97,WSW,254,0.0,0.0,45,0.00,,---,0.00,VWS V14.01,2013-07-08 07:17:00,
2013-07-08 02:23:00,77.9,55.5,28.97,West,270,0.0,0.0,46,0.00,,---,0.00,VWS V14.01,2013-07-08 07:23:00,
2013-07-08 02:28:00,77.7,55.3,28.97,West,269,0.0,0.0,46,0.00,,---,0.00,VWS V14.01,2013-07-08 07:28:00,
2013-07-08 02:33:00,77.7,55.3,28.97,WNW,296,0.0,0.0,46,0.00,,---,0.00,VWS V14.01,2013-07-08 07:33:00,
2013-07-08 02:38:00,77.7,55.3,28.97,WNW,296,0.0,0.0,46,0.00,,---,0.00,VWS V14.01,2013-07-08 07:38:00,
2013-07-08 02:43:00,77.4,56.2,28.97,WNW,296,0.0,0.0,48,0.00,,---,0.00,VWS V14.01,2013-07-08 07:43:00,
2013-07-08 02:49:00,77.4,56.2,28.97,WNW,296,0.0,0.0,48,0.00,,---,0.00,VWS V14.01,2013-07-08 07:49:00,
2013-07-08 02:55:00,77.2,56.0,28.97,WNW,296,0.0,0.0,48,0.00,,---,0.00,VWS V14.01,2013-07-08 07:55:00,
2013-07-08 03:01:00,77.0,55.8,28.97,WNW,296,0.0,0.0,48,0.00,,---,0.00,VWS V14.01,2013-07-08 08:01:00,
2013-07-08 03:06:00,76.8,56.2,28.97,WNW,296,0.0,0.0,49,0.00,,---,0.00,VWS V14.01,2013-07-08 08:06:00,
2013-07-08 03:11:00,76.8,56.8,28.97,NNW,345,0.0,0.0,50,0.00,,---,0.00,VWS V14.01,2013-07-08 08:11:00,
2013-07-08 03:16:00,76.8,56.8,28.97,NNW,345,0.0,0.0,50,0.00,,---,0.00,VWS V14.01,2013-07-08 08:16:00,
2013-07-08 03:22:00,76.6,56.6,28.97,NNW,345,0.0,0.0,50,0.00,,---,0.00,VWS V14.01,2013-07-08 08:22:00,
2013-07-08 03:27:00,76.8,56.2,28.97,North,353,0.0,0.0,49,0.00,,---,0.00,VWS V14.01,2013-07-08 08:27:00,
2013-07-08 03:33:00,76.8,56.2,28.97,WSW,240,0.0,0.0,49,0.00,,---,0.00,VWS V14.01,2013-07-08 08:33:00,
2013-07-08 03:38:00,77.2,55.4,28.97,South,172,0.0,0.0,47,0.00,,---,0.00,VWS V14.01,2013-07-08 08:38:00,
2013-07-08 03:44:00,77.2,55.4,28.97,South,176,0.0,0.0,47,0.00,,---,0.00,VWS V14.01,2013-07-08 08:44:00,
2013-07-08 03:49:00,77.2,55.4,28.97,SSW,205,0.0,0.0,47,0.00,,---,0.00,VWS V14.01,2013-07-08 08:49:00,
2013-07-08 03:55:00,77.2,56.0,28.97,SSW,205,0.0,0.0,48,0.00,,---,0.00,VWS V14.01,2013-07-08 08:55:00,
2013-07-08 04:01:00,76.8,57.3,28.97,SSW,205,0.0,0.0,51,0.00,,---,0.00,VWS V14.01,2013-07-08 09:01:00,
2013-07-08 04:06:00,76.8,57.9,28.97,SW,216,0.0,0.0,52,0.00,,---,0.00,VWS V14.01,2013-07-08 09:06:00,
2013-07-08 04:12:00,76.5,57.5,28.97,SW,216,0.0,0.0,52,0.00,,---,0.00,VWS V14.01,2013-07-08 09:12:00,
2013-07-08 04:18:00,76.3,58.4,28.97,SW,231,0.0,0.0,54,0.00,,---,0.00,VWS V14.01,2013-07-08 09:18:00,
2013-07-08 04:23:00,76.3,58.4,28.97,SW,231,0.0,0.0,54,0.00,,---,0.00,VWS V14.01,2013-07-08 09:23:00,
2013-07-08 04:28:00,76.3,59.5,28.97,SSW,200,0.0,0.0,56,0.00,,---,0.00,VWS V14.01,2013-07-08 09:28:00,
2013-07-08 04:34:00,76.3,60.0,28.97,South,188,0.0,0.0,57,0.00,,---,0.00,VWS V14.01,2013-07-08 09:34:00,
2013-07-08 04:40:00,76.1,60.3,28.97,SW,214,0.0,0.0,58,0.00,,---,0.00,VWS V14.01,2013-07-08 09:40:00,
2013-07-08 04:45:00,75.9,60.6,28.97,South,190,0.0,0.0,59,0.00,,---,0.00,VWS V14.01,2013-07-08 09:45:00,
2013-07-08 04:51:00,75.9,60.6,28.97,SW,228,0.0,0.0,59,0.00,,---,0.00,VWS V14.01,2013-07-08 09:51:00,
2013-07-08 04:56:00,75.4,61.5,28.97,WSW,249,0.0,0.0,62,0.00,,---,0.00,VWS V14.01,2013-07-08 09:56:00,
2013-07-08 05:01:00,75.2,61.8,28.97,WNW,286,0.0,0.0,63,0.00,,---,0.00,VWS V14.01,2013-07-08 10:01:00,
2013-07-08 05:07:00,75.2,61.8,28.97,WNW,286,0.0,0.0,63,0.00,,---,0.00,VWS V14.01,2013-07-08 10:07:00,
2013-07-08 05:12:00,75.0,61.6,28.97,WNW,286,0.0,0.0,63,0.00,,---,0.00,VWS V14.01,2013-07-08 10:12:00,
2013-07-08 05:18:00,74.8,61.4,28.97,WNW,285,0.0,0.0,63,0.00,,---,0.00,VWS V14.01,2013-07-08 10:18:00,
2013-07-08 05:23:00,74.7,61.7,28.97,WNW,286,0.0,0.0,64,0.00,,---,0.00,VWS V14.01,2013-07-08 10:23:00,
2013-07-08 05:28:00,74.7,62.1,28.97,WNW,286,0.0,0.0,65,0.00,,---,0.00,VWS V14.01,2013-07-08 10:28:00,
2013-07-08 05:34:00,74.7,62.1,28.97,WNW,285,0.0,0.0,65,0.00,,---,0.00,VWS V14.01,2013-07-08 10:34:00,
2013-07-08 05:40:00,74.5,62.0,28.97,WNW,286,0.0,0.0,65,0.00,,---,0.00,VWS V14.01,2013-07-08 10:40:00,
2013-07-08 05:46:00,74.3,62.2,28.97,WNW,286,0.0,0.0,66,0.00,,---,0.00,VWS V14.01,2013-07-08 10:46:00,
2013-07-08 05:51:00,74.3,62.2,28.97,WNW,286,0.0,0.0,66,0.00,,---,0.00,VWS V14.01,2013-07-08 10:51:00,
2013-07-08 05:57:00,74.3,62.2,28.97,WNW,286,0.0,0.0,66,0.00,,---,0.00,VWS V14.01,2013-07-08 10:57:00,
2013-07-08 06:03:00,74.1,62.5,28.97,WNW,286,0.0,0.0,67,0.00,,---,0.00,VWS V14.01,2013-07-08 11:03:00,
2013-07-08 06:08:00,74.1,62.5,28.97,WNW,286,0.0,0.0,67,0.00,,---,0.00,VWS V14.01,2013-07-08 11:08:00,
2013-07-08 06:14:00,74.1,62.9,28.97,WNW,285,0.0,0.0,68,0.00,,---,0.00,VWS V14.01,2013-07-08 11:14:00,
2013-07-08 06:19:00,74.1,62.9,28.97,WNW,286,0.0,0.0,68,0.00,,---,0.00,VWS V14.01,2013-07-08 11:19:00,
2013-07-08 06:25:00,74.1,62.9,28.97,WNW,285,0.0,0.0,68,0.00,,---,0.00,VWS V14.01,2013-07-08 11:25:00,
2013-07-08 06:30:00,74.1,62.9,28.97,WNW,285,0.0,0.0,68,0.00,,---,0.00,VWS V14.01,2013-07-08 11:30:00,
2013-07-08 06:35:00,74.5,62.8,28.97,WNW,286,0.0,0.0,67,0.00,,---,0.00,VWS V14.01,2013-07-08 11:35:00,
2013-07-08 06:40:00,74.5,62.4,28.97,WNW,285,0.0,0.0,66,0.00,,---,0.00,VWS V14.01,2013-07-08 11:40:00,
2013-07-08 06:46:00,74.5,62.4,28.97,WNW,286,0.0,0.0,66,0.00,,---,0.00,VWS V14.01,2013-07-08 11:46:00,
2013-07-08 06:52:00,74.8,62.3,28.97,WNW,285,0.0,0.0,65,0.00,,---,0.00,VWS V14.01,2013-07-08 11:52:00,
2013-07-08 06:57:00,74.8,62.3,28.97,WNW,285,0.0,0.0,65,0.00,,---,0.00,VWS V14.01,2013-07-08 11:57:00,
2013-07-08 07:03:00,75.2,62.2,28.97,WNW,285,0.0,0.0,64,0.00,,---,0.00,VWS V14.01,2013-07-08 12:03:00,
2013-07-08 07:08:00,75.2,62.2,28.97,WNW,285,0.0,0.0,64,0.00,,---,0.00,VWS V14.01,2013-07-08 12:08:00,
2013-07-08 07:13:00,75.6,61.6,28.97,West,272,0.0,0.0,62,0.00,,---,0.00,VWS V14.01,2013-07-08 12:13:00,
2013-07-08 07:18:00,75.6,61.6,28.97,West,272,0.0,0.0,62,0.00,,---,0.00,VWS V14.01,2013-07-08 12:18:00,
2013-07-08 07:24:00,75.7,60.9,28.97,SSW,210,0.0,0.0,60,0.00,,---,0.00,VWS V14.01,2013-07-08 12:24:00,
2013-07-08 07:29:00,76.3,60.0,28.97,SSW,211,0.0,0.0,57,0.00,,---,0.00,VWS V14.01,2013-07-08 12:29:00,
2013-07-08 07:35:00,76.6,60.3,28.97,NW,317,0.0,0.0,57,0.00,,---,0.00,VWS V14.01,2013-07-08 12:35:00,
2013-07-08 07:41:00,76.6,60.3,28.97,WSW,240,0.0,0.0,57,0.00,,---,0.00,VWS V14.01,2013-07-08 12:41:00,
2013-07-08 07:46:00,77.9,59.4,28.97,WSW,240,0.0,0.0,53,0.00,,---,0.00,VWS V14.01,2013-07-08 12:46:00,
2013-07-08 07:51:00,78.3,59.2,28.97,SSE,151,0.0,0.0,52,0.00,,---,0.00,VWS V14.01,2013-07-08 12:51:00,
2013-07-08 07:56:00,78.6,59.0,28.97,WSW,255,0.0,0.0,51,0.00,,---,0.00,VWS V14.01,2013-07-08 12:56:00,
2013-07-08 08:01:00,78.8,59.2,28.97,West,270,0.0,0.0,51,0.00,,---,0.00,VWS V14.01,2013-07-08 13:01:00,
2013-07-08 08:07:00,78.8,59.2,28.97,SW,217,0.0,0.0,51,0.00,,---,0.00,VWS V14.01,2013-07-08 13:07:00,
2013-07-08 08:13:00,79.9,57.3,28.97,SW,217,0.0,0.0,46,0.00,,---,0.00,VWS V14.01,2013-07-08 13:13:00,
2013-07-08 08:18:00,79.9,57.3,28.97,NW,308,0.0,0.0,46,0.00,,---,0.00,VWS V14.01,2013-07-08 13:18:00,
2013-07-08 08:24:00,80.8,56.2,28.97,West,272,0.0,0.0,43,0.00,,---,0.00,VWS V14.01,2013-07-08 13:24:00,
2013-07-08 08:29:00,80.8,56.2,28.97,SSW,205,0.0,0.0,43,0.00,,---,0.00,VWS V14.01,2013-07-08 13:29:00,
2013-07-08 08:35:00,81.5,56.2,28.97,South,177,0.0,0.0,42,0.00,,---,0.00,VWS V14.01,2013-07-08 13:35:00,
2013-07-08 08:40:00,81.9,55.9,28.97,SW,235,0.0,0.0,41,0.00,,---,0.00,VWS V14.01,2013-07-08 13:40:00,
2013-07-08 08:45:00,82.4,56.4,28.97,SE,144,0.0,0.0,41,0.00,,---,0.00,VWS V14.01,2013-07-08 13:45:00,
2013-07-08 08:51:00,82.8,56.0,28.97,NW,321,0.0,0.0,40,0.00,,---,0.00,VWS V14.01,2013-07-08 13:51:00,
2013-07-08 08:56:00,83.5,56.6,28.97,SSW,194,0.0,0.0,40,0.00,,---,0.00,VWS V14.01,2013-07-08 13:56:00,
2013-07-08 09:02:00,84.7,54.9,28.97,SW,214,0.0,0.0,36,0.00,,---,0.00,VWS V14.01,2013-07-08 14:02:00,
2013-07-08 09:07:00,84.7,54.9,28.97,West,273,0.0,0.0,36,0.00,,---,0.00,VWS V14.01,2013-07-08 14:07:00,
2013-07-08 09:12:00,86.0,53.6,28.97,SW,224,0.0,0.0,33,0.00,,---,0.00,VWS V14.01,2013-07-08 14:12:00,
2013-07-08 09:17:00,86.2,54.5,28.97,WNW,296,0.0,0.0,34,0.00,,---,0.00,VWS V14.01,2013-07-08 14:17:00,
2013-07-08 09:23:00,87.1,52.8,28.97,West,281,0.0,0.0,31,0.00,,---,0.00,VWS V14.01,2013-07-08 14:23:00,
2013-07-08 09:28:00,86.9,53.5,28.97,WNW,292,0.0,0.0,32,0.00,,---,0.00,VWS V14.01,2013-07-08 14:28:00,
2013-07-08 09:34:00,86.9,53.5,28.97,SW,227,0.0,0.0,32,0.00,,---,0.00,VWS V14.01,2013-07-08 14:34:00,
2013-07-08 09:40:00,86.9,52.7,28.97,SW,234,0.0,0.0,31,0.00,,---,0.00,VWS V14.01,2013-07-08 14:40:00,
2013-07-08 09:45:00,86.5,53.2,28.97,SSW,202,0.0,0.0,32,0.00,,---,0.00,VWS V14.01,2013-07-08 14:45:00,
2013-07-08 09:50:00,86.7,53.4,28.97,West,272,0.0,0.0,32,0.00,,---,0.00,VWS V14.01,2013-07-08 14:50:00,
2013-07-08 09:55:00,86.9,52.7,28.97,West,270,0.0,0.0,31,0.00,,---,0.00,VWS V14.01,2013-07-08 14:55:00,
2013-07-08 10:01:00,86.7,52.5,28.97,SSE,159,0.0,0.0,31,0.00,,---,0.00,VWS V14.01,2013-07-08 15:01:00,
2013-07-08 10:06:00,87.4,53.1,28.97,WNW,301,0.0,0.0,31,0.00,,---,0.00,VWS V14.01,2013-07-08 15:06:00,
2013-07-08 10:12:00,87.4,53.1,28.97,SW,220,0.0,0.0,31,0.00,,---,0.00,VWS V14.01,2013-07-08 15:12:00,
2013-07-08 10:17:00,87.4,53.1,28.97,WNW,293,0.0,0.0,31,0.00,,---,0.00,VWS V14.01,2013-07-08 15:17:00,
2013-07-08 10:22:00,89.4,53.0,29.00,NW,316,0.0,0.0,29,0.00,,---,0.00,VWS V14.01,2013-07-08 15:22:00,
2013-07-08 10:27:00,89.4,53.0,29.00,South,183,3.1,3.1,29,0.00,,---,0.00,VWS V14.01,2013-07-08 15:27:00,
2013-07-08 10:32:00,90.0,51.5,29.00,West,273,0.0,0.0,27,0.00,,---,0.00,VWS V14.01,2013-07-08 15:32:00,
2013-07-08 10:38:00,90.0,52.5,28.97,SW,222,0.0,0.0,28,0.00,,---,0.00,VWS V14.01,2013-07-08 15:38:00,
2013-07-08 10:43:00,90.0,52.5,28.97,ESE,109,0.0,0.0,28,0.00,,---,0.00,VWS V14.01,2013-07-08 15:43:00,
2013-07-08 10:49:00,90.3,51.8,29.00,WSW,241,0.0,0.0,27,0.00,,---,0.00,VWS V14.01,2013-07-08 15:49:00,
2013-07-08 10:54:00,91.0,52.5,29.00,East,90,0.0,0.0,27,0.00,,---,0.00,VWS V14.01,2013-07-08 15:54:00,
2013-07-08 10:59:00,90.9,53.3,29.00,WNW,298,0.0,0.0,28,0.00,,---,0.00,VWS V14.01,2013-07-08 15:59:00,
2013-07-08 11:04:00,90.7,53.1,29.00,WSW,255,0.0,0.0,28,0.00,,---,0.00,VWS V14.01,2013-07-08 16:04:00,
2013-07-08 11:09:00,91.0,53.4,29.00,South,182,0.0,0.0,28,0.00,,---,0.00,VWS V14.01,2013-07-08 16:09:00,
2013-07-08 11:15:00,90.9,53.3,29.00,West,270,0.0,0.0,28,0.00,,---,0.00,VWS V14.01,2013-07-08 16:15:00,
2013-07-08 11:20:00,92.3,53.5,29.00,SE,128,0.0,0.0,27,0.00,,---,0.00,VWS V14.01,2013-07-08 16:20:00,
2013-07-08 11:25:00,92.7,53.8,29.00,WNW,301,0.0,0.0,27,0.00,,---,0.00,VWS V14.01,2013-07-08 16:25:00,
2013-07-08 11:30:00,92.7,53.8,29.00,WNW,289,0.0,0.0,27,0.00,,---,0.00,VWS V14.01,2013-07-08 16:30:00,
2013-07-08 11:36:00,95.0,51.4,29.00,SSE,166,0.0,0.0,23,0.00,,---,0.00,VWS V14.01,2013-07-08 16:36:00,
2013-07-08 11:41:00,95.4,50.5,29.00,SSE,147,0.0,0.0,22,0.00,,---,0.00,VWS V14.01,2013-07-08 16:41:00,
2013-07-08 11:49:00,95.4,50.5,29.00,ESE,104,0.0,0.0,22,0.00,,---,0.00,VWS V14.01,2013-07-08 16:49:00,
2013-07-08 11:55:00,96.4,51.4,29.00,West,274,0.0,0.0,22,0.00,,---,0.00,VWS V14.01,2013-07-08 16:55:00,
2013-07-08 12:01:00,97.0,50.6,29.00,East,101,0.0,0.0,21,0.00,,---,0.00,VWS V14.01,2013-07-08 17:01:00,
2013-07-08 12:07:00,97.9,50.0,28.97,SW,225,0.0,0.0,20,0.00,,---,0.00,VWS V14.01,2013-07-08 17:07:00,
2013-07-08 12:14:00,98.4,49.1,28.97,SSW,192,0.0,0.0,19,0.00,,---,0.00,VWS V14.01,2013-07-08 17:14:00,
2013-07-08 12:19:00,98.4,49.1,28.97,SSE,158,0.0,0.0,19,0.00,,---,0.00,VWS V14.01,2013-07-08 17:19:00,
2013-07-08 12:25:00,98.8,48.0,28.97,WSW,250,0.0,0.0,18,0.00,,---,0.00,VWS V14.01,2013-07-08 17:25:00,
2013-07-08 12:30:00,98.8,48.0,28.97,SSW,192,0.0,0.0,18,0.00,,---,0.00,VWS V14.01,2013-07-08 17:30:00,
2013-07-08 12:35:00,99.0,46.6,28.97,SW,230,0.0,0.0,17,0.00,,---,0.00,VWS V14.01,2013-07-08 17:35:00,
2013-07-08 12:40:00,98.4,47.7,28.97,SSW,210,0.0,0.0,18,0.00,,---,0.00,VWS V14.01,2013-07-08 17:40:00,
2013-07-08 12:48:00,98.4,47.7,28.97,WNW,290,0.0,0.0,18,0.00,,---,0.00,VWS V14.01,2013-07-08 17:48:00,
2013-07-08 12:54:00,99.1,48.2,28.97,North,0,0.0,0.0,18,0.00,,---,0.00,VWS V14.01,2013-07-08 17:54:00,
2013-07-08 13:00:00,99.7,47.2,28.97,WSW,246,0.0,0.0,17,0.00,,---,0.00,VWS V14.01,2013-07-08 18:00:00,
2013-07-08 13:05:00,99.9,48.8,28.97,WSW,246,0.0,0.0,18,0.00,,---,0.00,VWS V14.01,2013-07-08 18:05:00,
2013-07-08 13:13:00,100.6,47.9,28.97,West,280,0.0,0.0,17,0.00,,---,0.00,VWS V14.01,2013-07-08 18:13:00,
2013-07-08 13:19:00,100.6,47.9,28.97,SSW,210,0.0,0.0,17,0.00,,---,0.00,VWS V14.01,2013-07-08 18:19:00,
2013-07-08 13:29:00,100.9,46.5,28.97,NE,54,0.0,0.0,16,0.00,,---,0.00,VWS V14.01,2013-07-08 18:29:00,
2013-07-08 13:35:00,102.7,46.3,28.97,North,5,0.0,0.0,15,0.00,,---,0.00,VWS V14.01,2013-07-08 18:35:00,
2013-07-08 13:41:00,102.6,46.1,28.97,WSW,246,0.0,0.0,15,0.00,,---,0.00,VWS V14.01,2013-07-08 18:41:00,
2013-07-08 13:47:00,102.4,46.0,28.97,WSW,250,0.0,0.0,15,0.00,,---,0.00,VWS V14.01,2013-07-08 18:47:00,
2013-07-08 13:54:00,102.9,48.1,28.97,East,99,0.0,0.0,16,0.00,,---,0.00,VWS V14.01,2013-07-08 18:54:00,
2013-07-08 13:59:00,102.7,46.3,28.97,SW,233,0.0,0.0,15,0.00,,---,0.00,VWS V14.01,2013-07-08 18:59:00,
2013-07-08 14:05:00,102.2,45.8,28.97,WSW,243,0.0,0.0,15,0.00,,---,0.00,VWS V14.01,2013-07-08 19:05:00,
2013-07-08 14:11:00,101.5,45.3,28.97,WNW,298,0.0,0.0,15,0.00,,---,0.00,VWS V14.01,2013-07-08 19:11:00,
2013-07-08 14:17:00,101.1,45.0,28.94,South,189,0.0,0.0,15,0.00,,---,0.00,VWS V14.01,2013-07-08 19:17:00,
2013-07-08 14:25:00,101.8,47.3,28.94,West,262,0.0,0.0,16,0.00,,---,0.00,VWS V14.01,2013-07-08 19:25:00,
2013-07-08 14:31:00,101.7,45.4,28.94,SW,233,0.0,0.0,15,0.00,,---,0.00,VWS V14.01,2013-07-08 19:31:00,
2013-07-08 14:37:00,101.3,45.1,28.94,South,173,0.0,0.0,15,0.00,,---,0.00,VWS V14.01,2013-07-08 19:37:00,
2013-07-08 14:45:00,100.9,44.8,28.94,West,276,0.0,0.0,15,0.00,,---,0.00,VWS V14.01,2013-07-08 19:45:00,
2013-07-08 14:50:00,100.9,44.8,28.94,SW,222,0.0,0.0,15,0.00,,---,0.00,VWS V14.01,2013-07-08 19:50:00,
2013-07-08 14:56:00,101.1,45.0,28.94,WNW,294,0.0,0.0,15,0.00,,---,0.00,VWS V14.01,2013-07-08 19:56:00,
2013-07-08 15:01:00,101.1,46.7,28.94,SW,223,0.0,0.0,16,0.00,,---,0.00,VWS V14.01,2013-07-08 20:01:00,
2013-07-08 15:07:00,102.7,46.3,28.94,SW,235,0.0,0.0,15,0.00,,---,0.00,VWS V14.01,2013-07-08 20:07:00,
2013-07-08 15:13:00,104.4,45.7,28.94,ESE,120,0.0,0.0,14,0.00,,---,0.00,VWS V14.01,2013-07-08 20:13:00,
2013-07-08 15:18:00,104.4,45.7,28.94,NW,308,0.0,0.0,14,0.00,,---,0.00,VWS V14.01,2013-07-08 20:18:00,
2013-07-08 15:26:00,104.7,46.0,28.94,West,260,0.0,0.0,14,0.00,,---,0.00,VWS V14.01,2013-07-08 20:26:00,
2013-07-08 15:31:00,105.6,46.7,28.94,SW,218,0.0,0.0,14,0.00,,---,0.00,VWS V14.01,2013-07-08 20:31:00,
2013-07-08 15:39:00,105.6,46.7,28.94,SSW,211,0.0,0.0,14,0.00,,---,0.00,VWS V14.01,2013-07-08 20:39:00,
2013-07-08 15:46:00,106.3,41.0,28.94,ENE,58,0.0,0.0,11,0.00,,---,0.00,VWS V14.01,2013-07-08 20:46:00,
2013-07-08 15:53:00,106.3,41.0,28.94,SSW,208,0.0,0.0,11,0.00,,---,0.00,VWS V14.01,2013-07-08 20:53:00,
2013-07-08 16:01:00,105.6,42.7,28.94,SSE,149,0.0,0.0,12,0.00,,---,0.00,VWS V14.01,2013-07-08 21:01:00,
2013-07-08 16:07:00,104.4,41.7,28.94,SSE,166,0.0,0.0,12,0.00,,---,0.00,VWS V14.01,2013-07-08 21:07:00,
2013-07-08 16:13:00,105.3,46.4,28.94,West,280,0.0,0.0,14,0.00,,---,0.00,VWS V14.01,2013-07-08 21:13:00,
2013-07-08 16:18:00,105.3,46.4,28.94,SW,235,0.0,0.0,14,0.00,,---,0.00,VWS V14.01,2013-07-08 21:18:00,
2013-07-08 16:25:00,104.9,46.2,28.94,South,187,0.0,0.0,14,0.00,,---,0.00,VWS V14.01,2013-07-08 21:25:00,
2013-07-08 16:32:00,104.9,46.2,28.94,WNW,285,0.0,0.0,14,0.00,,---,0.00,VWS V14.01,2013-07-08 21:32:00,
2013-07-08 16:40:00,106.3,41.0,28.94,SE,139,0.0,0.0,11,0.00,,---,0.00,VWS V14.01,2013-07-08 21:40:00,
2013-07-08 16:45:00,106.3,41.0,28.94,NW,316,0.0,0.0,11,0.00,,---,0.00,VWS V14.01,2013-07-08 21:45:00,
2013-07-08 16:51:00,106.2,40.8,28.94,SE,126,0.0,0.0,11,0.00,,---,0.00,VWS V14.01,2013-07-08 21:51:00,
2013-07-08 16:58:00,106.7,47.5,28.94,WSW,238,0.0,0.0,14,0.00,,---,0.00,VWS V14.01,2013-07-08 21:58:00,
2013-07-08 17:04:00,106.5,41.1,28.91,SW,222,0.0,0.0,11,0.00,,---,0.00,VWS V14.01,2013-07-08 22:04:00,
2013-07-08 17:11:00,105.4,42.5,28.91,WNW,302,0.0,0.0,12,0.00,,---,0.00,VWS V14.01,2013-07-08 22:11:00,
2013-07-08 17:16:00,104.4,45.7,28.91,SW,219,0.0,0.0,14,0.00,,---,0.00,VWS V14.01,2013-07-08 22:16:00,
2013-07-08 17:22:00,105.4,42.5,28.91,NNW,335,0.0,0.0,12,0.00,,---,0.00,VWS V14.01,2013-07-08 22:22:00,
2013-07-08 17:27:00,105.4,42.5,28.94,SSW,206,0.0,0.0,12,0.00,,---,0.00,VWS V14.01,2013-07-08 22:27:00,
2013-07-08 17:33:00,105.4,42.5,28.94,West,266,0.0,0.0,12,0.00,,---,0.00,VWS V14.01,2013-07-08 22:33:00,
2013-07-08 17:39:00,105.4,42.5,28.91,WSW,249,0.0,0.0,12,0.00,,---,0.00,VWS V14.01,2013-07-08 22:39:00,
2013-07-08 17:45:00,105.1,42.2,28.91,NE,54,0.0,0.0,12,0.00,,---,0.00,VWS V14.01,2013-07-08 22:45:00,
2013-07-08 17:51:00,104.5,41.8,28.91,West,261,0.0,0.0,12,0.00,,---,0.00,VWS V14.01,2013-07-08 22:51:00,
2013-07-08 17:57:00,104.0,41.4,28.91,WNW,285,0.0,0.0,12,0.00,,---,0.00,VWS V14.01,2013-07-08 22:57:00,
2013-07-08 18:03:00,102.9,40.6,28.91,ESE,117,0.0,0.0,12,0.00,,---,0.00,VWS V14.01,2013-07-08 23:03:00,
2013-07-08 18:10:00,101.5,39.5,28.91,East,86,2.2,2.2,12,0.00,,---,0.00,VWS V14.01,2013-07-08 23:10:00,
2013-07-08 18:15:00,101.5,39.5,28.91,East,94,0.0,0.0,12,0.00,,---,0.00,VWS V14.01,2013-07-08 23:15:00,
2013-07-08 18:22:00,99.3,39.9,28.91,WNW,286,0.0,0.0,13,0.00,,---,0.00,VWS V14.01,2013-07-08 23:22:00,
2013-07-08 18:27:00,99.3,39.9,28.91,SE,133,0.0,2.2,13,0.00,,---,0.00,VWS V14.01,2013-07-08 23:27:00,
2013-07-08 18:33:00,97.3,43.7,28.91,East,83,0.0,0.0,16,0.00,,---,0.00,VWS V14.01,2013-07-08 23:33:00,
2013-07-08 18:40:00,96.6,43.1,28.91,SE,140,0.0,0.0,16,0.00,,---,0.00,VWS V14.01,2013-07-08 23:40:00,
2013-07-08 18:46:00,96.6,43.1,28.91,SSE,168,0.0,0.0,16,0.00,,---,0.00,VWS V14.01,2013-07-08 23:46:00,
2013-07-08 18:51:00,96.1,42.7,28.91,NNE,21,0.0,0.0,16,0.00,,---,0.00,VWS V14.01,2013-07-08 23:51:00,
2013-07-08 18:57:00,95.5,42.2,28.91,SSW,209,0.0,0.0,16,0.00,,---,0.00,VWS V14.01,2013-07-08 23:57:00,
2013-07-08 19:02:00,95.5,42.2,28.91,ESE,105,0.0,0.0,16,0.00,,---,0.00,VWS V14.01,2013-07-09 00:02:00,
2013-07-08 19:07:00,95.0,41.8,28.91,East,92,0.0,0.0,16,0.00,,---,0.00,VWS V14.01,2013-07-09 00:07:00,
2013-07-08 19:13:00,94.5,43.0,28.91,West,262,0.0,0.0,17,0.00,,---,0.00,VWS V14.01,2013-07-09 00:13:00,
2013-07-08 19:21:00,94.5,43.0,28.91,SE,146,0.0,0.0,17,0.00,,---,0.00,VWS V14.01,2013-07-09 00:21:00,
2013-07-08 19:27:00,93.7,42.4,28.91,SW,225,0.0,2.2,17,0.00,,---,0.00,VWS V14.01,2013-07-09 00:27:00,
2013-07-08 19:33:00,93.7,42.4,28.91,South,170,0.0,0.0,17,0.00,,---,0.00,VWS V14.01,2013-07-09 00:33:00,
2013-07-08 19:40:00,93.2,43.4,28.91,South,190,0.0,0.0,18,0.00,,---,0.00,VWS V14.01,2013-07-09 00:40:00,
2013-07-08 19:47:00,92.8,43.2,28.91,ESE,105,0.0,0.0,18,0.00,,---,0.00,VWS V14.01,2013-07-09 00:47:00,
2013-07-08 19:54:00,92.5,42.9,28.91,WNW,284,0.0,0.0,18,0.00,,---,0.00,VWS V14.01,2013-07-09 00:54:00,
2013-07-08 19:59:00,92.5,42.9,28.91,SW,218,0.0,0.0,18,0.00,,---,0.00,VWS V14.01,2013-07-09 00:59:00,
2013-07-08 20:04:00,92.5,42.9,28.91,WSW,249,0.0,0.0,18,0.00,,---,0.00,VWS V14.01,2013-07-09 01:04:00,
2013-07-08 20:13:00,91.6,43.5,28.91,ESE,116,0.0,0.0,19,0.00,,---,0.00,VWS V14.01,2013-07-09 01:13:00,
2013-07-08 20:18:00,91.2,44.6,28.91,SSE,166,0.0,0.0,20,0.00,,---,0.00,VWS V14.01,2013-07-09 01:18:00,
2013-07-08 20:26:00,91.2,44.6,28.91,ESE,109,0.0,0.0,20,0.00,,---,0.00,VWS V14.01,2013-07-09 01:26:00,
2013-07-08 20:33:00,90.1,45.0,28.91,South,190,0.0,0.0,21,0.00,,---,0.00,VWS V14.01,2013-07-09 01:33:00,
2013-07-08 20:38:00,89.8,48.2,28.91,SSW,197,0.0,0.0,24,0.00,,---,0.00,VWS V14.01,2013-07-09 01:38:00,
2013-07-08 20:43:00,88.7,49.5,28.91,South,182,0.0,0.0,26,0.00,,---,0.00,VWS V14.01,2013-07-09 01:43:00,
2013-07-08 20:52:00,88.7,49.5,28.91,SSE,159,0.0,0.0,26,0.00,,---,0.00,VWS V14.01,2013-07-09 01:52:00,
2013-07-08 21:03:00,87.1,50.1,28.91,SSW,210,0.0,0.0,28,0.00,,---,0.00,VWS V14.01,2013-07-09 02:03:00,
2013-07-08 21:09:00,86.7,50.7,28.91,West,265,0.0,0.0,29,0.00,,---,0.00,VWS V14.01,2013-07-09 02:09:00,
2013-07-08 21:15:00,86.5,50.5,28.91,SSE,153,0.0,0.0,29,0.00,,---,0.00,VWS V14.01,2013-07-09 02:15:00,
2013-07-08 21:22:00,86.5,50.5,28.94,WSW,242,0.0,0.0,29,0.00,,---,0.00,VWS V14.01,2013-07-09 02:22:00,
2013-07-08 21:28:00,86.4,50.4,28.94,WSW,242,0.0,0.0,29,0.00,,---,0.00,VWS V14.01,2013-07-09 02:28:00,
2013-07-08 21:33:00,86.2,50.2,28.94,WNW,287,0.0,0.0,29,0.00,,---,0.00,VWS V14.01,2013-07-09 02:33:00,
2013-07-08 21:40:00,86.2,50.2,28.94,ESE,106,0.0,0.0,29,0.00,,---,0.00,VWS V14.01,2013-07-09 02:40:00,
2013-07-08 21:45:00,86.2,50.2,28.94,WNW,291,0.0,0.0,29,0.00,,---,0.00,VWS V14.01,2013-07-09 02:45:00,
2013-07-08 21:52:00,85.8,50.8,28.94,SE,128,0.0,0.0,30,0.00,,---,0.00,VWS V14.01,2013-07-09 02:52:00,
2013-07-08 21:58:00,85.6,50.7,28.94,SE,126,0.0,0.0,30,0.00,,---,0.00,VWS V14.01,2013-07-09 02:58:00,
2013-07-08 22:04:00,85.5,50.5,28.94,WSW,257,0.0,0.0,30,0.00,,---,0.00,VWS V14.01,2013-07-09 03:04:00,
2013-07-08 22:09:00,85.1,51.1,28.94,WSW,250,0.0,0.0,31,0.00,,---,0.00,VWS V14.01,2013-07-09 03:09:00,
2013-07-08 22:14:00,84.7,50.8,28.94,SW,217,0.0,0.0,31,0.00,,---,0.00,VWS V14.01,2013-07-09 03:14:00,
2013-07-08 22:20:00,84.6,50.6,28.94,SW,217,0.0,0.0,31,0.00,,---,0.00,VWS V14.01,2013-07-09 03:20:00,
2013-07-08 22:25:00,84.2,51.2,28.94,WNW,302,0.0,0.0,32,0.00,,---,0.00,VWS V14.01,2013-07-09 03:25:00,
2013-07-08 22:31:00,84.2,51.2,28.94,North,357,0.0,0.0,32,0.00,,---,0.00,VWS V14.01,2013-07-09 03:31:00,
2013-07-08 22:37:00,84.0,52.7,28.97,West,276,0.0,0.0,34,0.00,,---,0.00,VWS V14.01,2013-07-09 03:37:00,
2013-07-08 22:42:00,84.0,52.7,28.97,South,179,0.0,0.0,34,0.00,,---,0.00,VWS V14.01,2013-07-09 03:42:00,
2013-07-08 22:48:00,84.0,52.7,28.97,NNE,29,0.0,0.0,34,0.00,,---,0.00,VWS V14.01,2013-07-09 03:48:00,
2013-07-08 22:58:00,83.8,53.3,28.94,East,83,0.0,0.0,35,0.00,,---,0.00,VWS V14.01,2013-07-09 03:58:00,
2013-07-08 23:01:00,83.8,53.3,28.94,SSE,166,0.0,0.0,35,0.00,,---,0.00,VWS V14.01,2013-07-09 04:01:00,
2013-07-08 23:02:00,83.8,53.3,28.94,WSW,242,0.0,0.0,35,0.00,,---,0.00,VWS V14.01,2013-07-09 04:02:00,
2013-07-08 23:04:00,83.8,53.3,28.94,SSE,159,0.0,0.0,35,0.00,,---,0.00,VWS V14.01,2013-07-09 04:04:00,
2013-07-08 23:08:00,83.7,53.9,28.97,East,100,0.0,0.0,36,0.00,,---,0.00,VWS V14.01,2013-07-09 04:08:00,
2013-07-08 23:13:00,83.7,53.9,28.97,WSW,248,0.0,0.0,36,0.00,,---,0.00,VWS V14.01,2013-07-09 04:13:00,
2013-07-08 23:19:00,83.3,54.3,28.97,SSW,200,0.0,0.0,37,0.00,,---,0.00,VWS V14.01,2013-07-09 04:19:00,
2013-07-08 23:24:00,83.5,54.5,28.97,NNW,333,0.0,0.0,37,0.00,,---,0.00,VWS V14.01,2013-07-09 04:24:00,
2013-07-08 23:30:00,83.5,54.5,28.97,South,191,0.0,0.0,37,0.00,,---,0.00,VWS V14.01,2013-07-09 04:30:00,
2013-07-08 23:35:00,83.3,54.3,28.97,SE,143,0.0,0.0,37,0.00,,---,0.00,VWS V14.01,2013-07-09 04:35:00,
2013-07-08 23:40:00,83.3,54.3,28.94,WSW,257,0.0,0.0,37,0.00,,---,0.00,VWS V14.01,2013-07-09 04:40:00,
2013-07-08 23:45:00,83.1,54.9,28.94,East,95,0.0,0.0,38,0.00,,---,0.00,VWS V14.01,2013-07-09 04:45:00,
2013-07-08 23:51:00,83.1,54.9,28.94,West,279,0.0,0.0,38,0.00,,---,0.00,VWS V14.01,2013-07-09 04:51:00,
2013-07-08 23:56:00,83.1,54.9,28.94,SSW,206,0.0,0.0,38,0.00,,---,0.00,VWS V14.01,2013-07-09 04:56:00,